PWSweather.com
Personal Weather Stations
Station Observations
BREEJEDURP
'sGravenzande, WestlandNL

'sGravenzandeWestlandNL

Lat: 52.00095260000001, Lon: 4.174256600000035

Elevation: 3

Station Type: Davis Vantage Pro2 Plus

www.breejedurp.nl

High Low Average
Temperature 45.1°F7.3°C 38.5°F3.6°C 42.3°F5.7°C
Dew Point 42.3°F5.7°C 35.5°F1.9°C 39.4°F4.1°C
Winds 12.0 mph 19.3 kmh Calm Calm 3.0 mph ESE4.8 kmh ESE
Wind Gusts 19.0 mph30.6 kmh -- 6.0 mph9.7 kmh
Humidity 96% 83% 89%
Pressure 30.10 in1019.3 mb 29.52 in999.7 mb -
Precipitation 0.00 in0.0 mm - -
Hour Temp Dew Point Humidity Winds Wind Gusts Pressure Precip Precip Rate Daily Precip Total
12:04 AM 43.2°F6.2°C 40.1°F4.5°C 89% 10.0 mph SSW16.1 kmh SSW 13.0 mph20.9 kmh 29.52 in999.7 mb 0.00 in0.0 mm 0.00 in0.0 mm 0.00 in0.0 mm
12:09 AM 43.2°F6.2°C 40.1°F4.5°C 89% 12.0 mph SW19.3 kmh SW 19.0 mph30.6 kmh 29.52 in999.7 mb 0.00 in0.0 mm 0.00 in0.0 mm 0.00 in0.0 mm
12:14 AM 43.2°F6.2°C 40.1°F4.5°C 89% 10.0 mph SSW16.1 kmh SSW 16.0 mph25.7 kmh 29.52 in999.7 mb 0.00 in0.0 mm 0.00 in0.0 mm 0.00 in0.0 mm
12:19 AM 43.2°F6.2°C 40.1°F4.5°C 89% 11.0 mph SSW17.7 kmh SSW 16.0 mph25.7 kmh 29.53 in1000.0 mb 0.00 in0.0 mm 0.00 in0.0 mm 0.00 in0.0 mm
12:24 AM 43.2°F6.2°C 40.1°F4.5°C 89% 7.0 mph SW11.3 kmh SW 13.0 mph20.9 kmh 29.53 in1000.0 mb 0.00 in0.0 mm 0.00 in0.0 mm 0.00 in0.0 mm
12:29 AM 43.2°F6.2°C 40.1°F4.5°C 89% 6.0 mph SW9.7 kmh SW 9.0 mph14.5 kmh 29.53 in1000.0 mb 0.00 in0.0 mm 0.00 in0.0 mm 0.00 in0.0 mm
12:34 AM 43.0°F6.1°C 40.3°F4.6°C 90% 8.0 mph SW12.9 kmh SW 12.0 mph19.3 kmh 29.53 in1000.0 mb 0.00 in0.0 mm 0.00 in0.0 mm 0.00 in0.0 mm
12:39 AM 43.0°F6.1°C 40.3°F4.6°C 90% 6.0 mph SW9.7 kmh SW 11.0 mph17.7 kmh 29.54 in1000.3 mb 0.00 in0.0 mm 0.00 in0.0 mm 0.00 in0.0 mm
12:44 AM 43.2°F6.2°C 40.4°F4.7°C 90% 7.0 mph S11.3 kmh S 14.0 mph22.5 kmh 29.54 in1000.3 mb 0.00 in0.0 mm 0.00 in0.0 mm 0.00 in0.0 mm
12:49 AM 43.2°F6.2°C 40.4°F4.7°C 90% 7.0 mph SW11.3 kmh SW 12.0 mph19.3 kmh 29.54 in1000.3 mb 0.00 in0.0 mm 0.00 in0.0 mm 0.00 in0.0 mm
12:54 AM 43.2°F6.2°C 40.4°F4.7°C 90% 5.0 mph SW8.0 kmh SW 8.0 mph12.9 kmh 29.54 in1000.3 mb 0.00 in0.0 mm 0.00 in0.0 mm 0.00 in0.0 mm
12:59 AM 43.0°F6.1°C 40.5°F4.7°C 91% 5.0 mph SSW8.0 kmh SSW 9.0 mph14.5 kmh 29.54 in1000.3 mb 0.00 in0.0 mm 0.00 in0.0 mm 0.00 in0.0 mm
01:04 AM 43.0°F6.1°C 40.5°F4.7°C 91% 5.0 mph SW8.0 kmh SW 7.0 mph11.3 kmh 29.54 in1000.3 mb 0.00 in0.0 mm 0.00 in0.0 mm 0.00 in0.0 mm
01:09 AM 43.0°F6.1°C 40.5°F4.7°C 91% 3.0 mph SSW4.8 kmh SSW 5.0 mph8.0 kmh 29.54 in1000.3 mb 0.00 in0.0 mm 0.00 in0.0 mm 0.00 in0.0 mm
01:14 AM 43.0°F6.1°C 40.8°F4.9°C 92% 5.0 mph SW8.0 kmh SW 10.0 mph16.1 kmh 29.55 in1000.7 mb 0.00 in0.0 mm 0.00 in0.0 mm 0.00 in0.0 mm
01:19 AM 43.2°F6.2°C 41.0°F5.0°C 92% 8.0 mph SW12.9 kmh SW 11.0 mph17.7 kmh 29.55 in1000.7 mb 0.00 in0.0 mm 0.00 in0.0 mm 0.00 in0.0 mm
01:24 AM 43.3°F6.3°C 41.2°F5.1°C 92% 4.0 mph WSW6.4 kmh WSW 10.0 mph16.1 kmh 29.55 in1000.7 mb 0.00 in0.0 mm 0.00 in0.0 mm 0.00 in0.0 mm
01:29 AM 43.5°F6.4°C 41.4°F5.2°C 92% 6.0 mph SW9.7 kmh SW 11.0 mph17.7 kmh 29.55 in1000.7 mb 0.00 in0.0 mm 0.00 in0.0 mm 0.00 in0.0 mm
01:34 AM 43.5°F6.4°C 41.4°F5.2°C 92% 4.0 mph SW6.4 kmh SW 11.0 mph17.7 kmh 29.55 in1000.7 mb 0.00 in0.0 mm 0.00 in0.0 mm 0.00 in0.0 mm
01:39 AM 43.5°F6.4°C 41.4°F5.2°C 92% 4.0 mph SSW6.4 kmh SSW 9.0 mph14.5 kmh 29.55 in1000.7 mb 0.00 in0.0 mm 0.00 in0.0 mm 0.00 in0.0 mm
01:44 AM 43.5°F6.4°C 41.4°F5.2°C 92% 6.0 mph SW9.7 kmh SW 10.0 mph16.1 kmh 29.56 in1001.0 mb 0.00 in0.0 mm 0.00 in0.0 mm 0.00 in0.0 mm
01:49 AM 43.5°F6.4°C 41.4°F5.2°C 92% 4.0 mph SSW6.4 kmh SSW 5.0 mph8.0 kmh 29.56 in1001.0 mb 0.00 in0.0 mm 0.00 in0.0 mm 0.00 in0.0 mm
01:54 AM 43.5°F6.4°C 41.4°F5.2°C 92% 4.0 mph SSE6.4 kmh SSE 8.0 mph12.9 kmh 29.56 in1001.0 mb 0.00 in0.0 mm 0.00 in0.0 mm 0.00 in0.0 mm
01:59 AM 43.5°F6.4°C 41.4°F5.2°C 92% 2.0 mph SSW3.2 kmh SSW 4.0 mph6.4 kmh 29.56 in1001.0 mb 0.00 in0.0 mm 0.00 in0.0 mm 0.00 in0.0 mm
02:04 AM 43.5°F6.4°C 41.4°F5.2°C 92% 3.0 mph SW4.8 kmh SW 5.0 mph8.0 kmh 29.56 in1001.0 mb 0.00 in0.0 mm 0.00 in0.0 mm 0.00 in0.0 mm
02:09 AM 43.5°F6.4°C 41.4°F5.2°C 92% 1.0 mph WSW1.6 kmh WSW 4.0 mph6.4 kmh 29.57 in1001.4 mb 0.00 in0.0 mm 0.00 in0.0 mm 0.00 in0.0 mm
02:14 AM 43.5°F6.4°C 41.1°F5.1°C 91% 2.0 mph S3.2 kmh S 4.0 mph6.4 kmh 29.57 in1001.4 mb 0.00 in0.0 mm 0.00 in0.0 mm 0.00 in0.0 mm
02:19 AM 43.5°F6.4°C 41.1°F5.1°C 91% 4.0 mph SSW6.4 kmh SSW 7.0 mph11.3 kmh 29.57 in1001.4 mb 0.00 in0.0 mm 0.00 in0.0 mm 0.00 in0.0 mm
02:24 AM 43.5°F6.4°C 40.8°F4.9°C 90% 3.0 mph WSW4.8 kmh WSW 6.0 mph9.7 kmh 29.57 in1001.4 mb 0.00 in0.0 mm 0.00 in0.0 mm 0.00 in0.0 mm
02:29 AM 43.5°F6.4°C 40.5°F4.7°C 89% 4.0 mph W6.4 kmh W 6.0 mph9.7 kmh 29.57 in1001.4 mb 0.00 in0.0 mm 0.00 in0.0 mm 0.00 in0.0 mm
02:34 AM 43.5°F6.4°C 40.2°F4.6°C 88% 8.0 mph W12.9 kmh W 10.0 mph16.1 kmh 29.57 in1001.4 mb 0.00 in0.0 mm 0.00 in0.0 mm 0.00 in0.0 mm
02:39 AM 43.3°F6.3°C 40.0°F4.4°C 88% 7.0 mph W11.3 kmh W 11.0 mph17.7 kmh 29.57 in1001.4 mb 0.00 in0.0 mm 0.00 in0.0 mm 0.00 in0.0 mm
02:44 AM 43.3°F6.3°C 40.0°F4.4°C 88% 5.0 mph W8.0 kmh W 9.0 mph14.5 kmh 29.57 in1001.4 mb 0.00 in0.0 mm 0.00 in0.0 mm 0.00 in0.0 mm
02:49 AM 43.2°F6.2°C 39.9°F4.4°C 88% 4.0 mph W6.4 kmh W 7.0 mph11.3 kmh 29.57 in1001.4 mb 0.00 in0.0 mm 0.00 in0.0 mm 0.00 in0.0 mm
02:54 AM 43.2°F6.2°C 39.9°F4.4°C 88% 1.0 mph W1.6 kmh W 2.0 mph3.2 kmh 29.57 in1001.4 mb 0.00 in0.0 mm 0.00 in0.0 mm 0.00 in0.0 mm
02:59 AM 43.2°F6.2°C 39.9°F4.4°C 88% 2.0 mph SW3.2 kmh SW 3.0 mph4.8 kmh 29.58 in1001.7 mb 0.00 in0.0 mm 0.00 in0.0 mm 0.00 in0.0 mm
03:04 AM 43.2°F6.2°C 39.9°F4.4°C 88% 1.0 mph SSW1.6 kmh SSW 2.0 mph3.2 kmh 29.58 in1001.7 mb 0.00 in0.0 mm 0.00 in0.0 mm 0.00 in0.0 mm
03:09 AM 43.2°F6.2°C 39.9°F4.4°C 88% 4.0 mph WSW6.4 kmh WSW 8.0 mph12.9 kmh 29.58 in1001.7 mb 0.00 in0.0 mm 0.00 in0.0 mm 0.00 in0.0 mm
03:14 AM 43.3°F6.3°C 40.0°F4.4°C 88% 5.0 mph W8.0 kmh W 8.0 mph12.9 kmh 29.58 in1001.7 mb 0.00 in0.0 mm 0.00 in0.0 mm 0.00 in0.0 mm
03:19 AM 43.3°F6.3°C 40.0°F4.4°C 88% 4.0 mph WSW6.4 kmh WSW 7.0 mph11.3 kmh 29.58 in1001.7 mb 0.00 in0.0 mm 0.00 in0.0 mm 0.00 in0.0 mm
03:24 AM 43.3°F6.3°C 39.7°F4.3°C 87% 1.0 mph W1.6 kmh W 3.0 mph4.8 kmh 29.59 in1002.0 mb 0.00 in0.0 mm 0.00 in0.0 mm 0.00 in0.0 mm
03:29 AM 43.5°F6.4°C 39.6°F4.2°C 86% 4.0 mph SSW6.4 kmh SSW 6.0 mph9.7 kmh 29.59 in1002.0 mb 0.00 in0.0 mm 0.00 in0.0 mm 0.00 in0.0 mm
03:34 AM 43.5°F6.4°C 39.6°F4.2°C 86% 3.0 mph WSW4.8 kmh WSW 5.0 mph8.0 kmh 29.59 in1002.0 mb 0.00 in0.0 mm 0.00 in0.0 mm 0.00 in0.0 mm
03:39 AM 43.5°F6.4°C 39.6°F4.2°C 86% 4.0 mph SW6.4 kmh SW 7.0 mph11.3 kmh 29.59 in1002.0 mb 0.00 in0.0 mm 0.00 in0.0 mm 0.00 in0.0 mm
03:44 AM 43.7°F6.5°C 39.5°F4.2°C 85% 2.0 mph SSW3.2 kmh SSW 4.0 mph6.4 kmh 29.59 in1002.0 mb 0.00 in0.0 mm 0.00 in0.0 mm 0.00 in0.0 mm
03:49 AM 43.7°F6.5°C 39.5°F4.2°C 85% 4.0 mph WNW6.4 kmh WNW 7.0 mph11.3 kmh 29.59 in1002.0 mb 0.00 in0.0 mm 0.00 in0.0 mm 0.00 in0.0 mm
03:54 AM 43.7°F6.5°C 39.5°F4.2°C 85% 3.0 mph SSW4.8 kmh SSW 5.0 mph8.0 kmh 29.59 in1002.0 mb 0.00 in0.0 mm 0.00 in0.0 mm 0.00 in0.0 mm
03:59 AM 43.5°F6.4°C 39.6°F4.2°C 86% 1.0 mph WSW1.6 kmh WSW 3.0 mph4.8 kmh 29.59 in1002.0 mb 0.00 in0.0 mm 0.00 in0.0 mm 0.00 in0.0 mm
04:04 AM 43.7°F6.5°C 39.8°F4.3°C 86% 4.0 mph W6.4 kmh W 7.0 mph11.3 kmh 29.59 in1002.0 mb 0.00 in0.0 mm 0.00 in0.0 mm 0.00 in0.0 mm
04:09 AM 43.7°F6.5°C 39.8°F4.3°C 86% 6.0 mph W9.7 kmh W 8.0 mph12.9 kmh 29.59 in1002.0 mb 0.00 in0.0 mm 0.00 in0.0 mm 0.00 in0.0 mm
04:14 AM 43.7°F6.5°C 39.8°F4.3°C 86% 6.0 mph W9.7 kmh W 8.0 mph12.9 kmh 29.59 in1002.0 mb 0.00 in0.0 mm 0.00 in0.0 mm 0.00 in0.0 mm
04:19 AM 43.5°F6.4°C 39.9°F4.4°C 87% 5.0 mph WNW8.0 kmh WNW 8.0 mph12.9 kmh 29.59 in1002.0 mb 0.00 in0.0 mm 0.00 in0.0 mm 0.00 in0.0 mm
04:24 AM 43.5°F6.4°C 40.2°F4.6°C 88% 7.0 mph W11.3 kmh W 9.0 mph14.5 kmh 29.59 in1002.0 mb 0.00 in0.0 mm 0.00 in0.0 mm 0.00 in0.0 mm
04:29 AM 43.5°F6.4°C 40.2°F4.6°C 88% 4.0 mph W6.4 kmh W 8.0 mph12.9 kmh 29.59 in1002.0 mb 0.00 in0.0 mm 0.00 in0.0 mm 0.00 in0.0 mm
04:34 AM 43.3°F6.3°C 40.0°F4.4°C 88% 4.0 mph W6.4 kmh W 7.0 mph11.3 kmh 29.59 in1002.0 mb 0.00 in0.0 mm 0.00 in0.0 mm 0.00 in0.0 mm
04:39 AM 43.3°F6.3°C 40.0°F4.4°C 88% 4.0 mph W6.4 kmh W 8.0 mph12.9 kmh 29.59 in1002.0 mb 0.00 in0.0 mm 0.00 in0.0 mm 0.00 in0.0 mm
04:44 AM 43.2°F6.2°C 39.9°F4.4°C 88% 4.0 mph WSW6.4 kmh WSW 8.0 mph12.9 kmh 29.59 in1002.0 mb 0.00 in0.0 mm 0.00 in0.0 mm 0.00 in0.0 mm
04:49 AM 43.2°F6.2°C 39.9°F4.4°C 88% 4.0 mph W6.4 kmh W 6.0 mph9.7 kmh 29.59 in1002.0 mb 0.00 in0.0 mm 0.00 in0.0 mm 0.00 in0.0 mm
04:54 AM 43.2°F6.2°C 40.1°F4.5°C 89% 3.0 mph W4.8 kmh W 4.0 mph6.4 kmh 29.60 in1002.4 mb 0.00 in0.0 mm 0.00 in0.0 mm 0.00 in0.0 mm
04:59 AM 43.2°F6.2°C 40.1°F4.5°C 89% 2.0 mph W3.2 kmh W 4.0 mph6.4 kmh 29.60 in1002.4 mb 0.00 in0.0 mm 0.00 in0.0 mm 0.00 in0.0 mm
05:04 AM 43.2°F6.2°C 40.1°F4.5°C 89% 1.0 mph W1.6 kmh W 3.0 mph4.8 kmh 29.60 in1002.4 mb 0.00 in0.0 mm 0.00 in0.0 mm 0.00 in0.0 mm
05:09 AM 43.0°F6.1°C 40.0°F4.4°C 89% 3.0 mph W4.8 kmh W 4.0 mph6.4 kmh 29.60 in1002.4 mb 0.00 in0.0 mm 0.00 in0.0 mm 0.00 in0.0 mm
05:14 AM 43.0°F6.1°C 40.0°F4.4°C 89% 3.0 mph W4.8 kmh W 4.0 mph6.4 kmh 29.61 in1002.7 mb 0.00 in0.0 mm 0.00 in0.0 mm 0.00 in0.0 mm
05:19 AM 42.8°F6.0°C 40.1°F4.5°C 90% 3.0 mph W4.8 kmh W 4.0 mph6.4 kmh 29.61 in1002.7 mb 0.00 in0.0 mm 0.00 in0.0 mm 0.00 in0.0 mm
05:24 AM 42.6°F5.9°C 39.9°F4.4°C 90% 2.0 mph WSW3.2 kmh WSW 4.0 mph6.4 kmh 29.61 in1002.7 mb 0.00 in0.0 mm 0.00 in0.0 mm 0.00 in0.0 mm
05:29 AM 42.6°F5.9°C 39.9°F4.4°C 90% 1.0 mph W1.6 kmh W 3.0 mph4.8 kmh 29.61 in1002.7 mb 0.00 in0.0 mm 0.00 in0.0 mm 0.00 in0.0 mm
05:34 AM 42.4°F5.8°C 40.0°F4.4°C 91% Calm Calm -- 29.61 in1002.7 mb 0.00 in0.0 mm 0.00 in0.0 mm 0.00 in0.0 mm
05:39 AM 42.4°F5.8°C 40.0°F4.4°C 91% 2.0 mph SW3.2 kmh SW 3.0 mph4.8 kmh 29.61 in1002.7 mb 0.00 in0.0 mm 0.00 in0.0 mm 0.00 in0.0 mm
05:44 AM 42.6°F5.9°C 40.2°F4.6°C 91% 1.0 mph SSW1.6 kmh SSW 3.0 mph4.8 kmh 29.62 in1003.0 mb 0.00 in0.0 mm 0.00 in0.0 mm 0.00 in0.0 mm
05:49 AM 42.6°F5.9°C 40.2°F4.6°C 91% 1.0 mph SW1.6 kmh SW 2.0 mph3.2 kmh 29.61 in1002.7 mb 0.00 in0.0 mm 0.00 in0.0 mm 0.00 in0.0 mm
05:54 AM 42.6°F5.9°C 40.2°F4.6°C 91% 1.0 mph WSW1.6 kmh WSW 3.0 mph4.8 kmh 29.62 in1003.0 mb 0.00 in0.0 mm 0.00 in0.0 mm 0.00 in0.0 mm
05:59 AM 42.8°F6.0°C 40.4°F4.7°C 91% Calm Calm 1.0 mph1.6 kmh 29.62 in1003.0 mb 0.00 in0.0 mm 0.00 in0.0 mm 0.00 in0.0 mm
06:04 AM 43.0°F6.1°C 40.3°F4.6°C 90% Calm Calm -- 29.62 in1003.0 mb 0.00 in0.0 mm 0.00 in0.0 mm 0.00 in0.0 mm
06:09 AM 43.0°F6.1°C 40.3°F4.6°C 90% 1.0 mph SW1.6 kmh SW 2.0 mph3.2 kmh 29.62 in1003.0 mb 0.00 in0.0 mm 0.00 in0.0 mm 0.00 in0.0 mm
06:14 AM 43.0°F6.1°C 40.3°F4.6°C 90% 2.0 mph SW3.2 kmh SW 3.0 mph4.8 kmh 29.62 in1003.0 mb 0.00 in0.0 mm 0.00 in0.0 mm 0.00 in0.0 mm
06:19 AM 43.0°F6.1°C 40.3°F4.6°C 90% Calm Calm 1.0 mph1.6 kmh 29.62 in1003.0 mb 0.00 in0.0 mm 0.00 in0.0 mm 0.00 in0.0 mm
06:24 AM 43.0°F6.1°C 40.5°F4.7°C 91% 1.0 mph WSW1.6 kmh WSW 1.0 mph1.6 kmh 29.63 in1003.4 mb 0.00 in0.0 mm 0.00 in0.0 mm 0.00 in0.0 mm
06:29 AM 43.0°F6.1°C 40.5°F4.7°C 91% Calm Calm 1.0 mph1.6 kmh 29.63 in1003.4 mb 0.00 in0.0 mm 0.00 in0.0 mm 0.00 in0.0 mm
06:34 AM 42.8°F6.0°C 40.4°F4.7°C 91% 1.0 mph WSW1.6 kmh WSW 2.0 mph3.2 kmh 29.63 in1003.4 mb 0.00 in0.0 mm 0.00 in0.0 mm 0.00 in0.0 mm
06:39 AM 43.0°F6.1°C 40.5°F4.7°C 91% 1.0 mph WSW1.6 kmh WSW 2.0 mph3.2 kmh 29.63 in1003.4 mb 0.00 in0.0 mm 0.00 in0.0 mm 0.00 in0.0 mm
06:44 AM 43.0°F6.1°C 40.5°F4.7°C 91% Calm Calm -- 29.63 in1003.4 mb 0.00 in0.0 mm 0.00 in0.0 mm 0.00 in0.0 mm
06:49 AM 42.8°F6.0°C 40.4°F4.7°C 91% Calm Calm 1.0 mph1.6 kmh 29.64 in1003.7 mb 0.00 in0.0 mm 0.00 in0.0 mm 0.00 in0.0 mm
06:54 AM 42.6°F5.9°C 40.2°F4.6°C 91% 3.0 mph W4.8 kmh W 3.0 mph4.8 kmh 29.63 in1003.4 mb 0.00 in0.0 mm 0.00 in0.0 mm 0.00 in0.0 mm
06:59 AM 42.6°F5.9°C 40.2°F4.6°C 91% 2.0 mph W3.2 kmh W 3.0 mph4.8 kmh 29.63 in1003.4 mb 0.00 in0.0 mm 0.00 in0.0 mm 0.00 in0.0 mm
07:04 AM 42.6°F5.9°C 40.5°F4.7°C 92% 3.0 mph WNW4.8 kmh WNW 4.0 mph6.4 kmh 29.64 in1003.7 mb 0.00 in0.0 mm 0.00 in0.0 mm 0.00 in0.0 mm
07:09 AM 42.4°F5.8°C 40.0°F4.4°C 91% 3.0 mph WNW4.8 kmh WNW 4.0 mph6.4 kmh 29.64 in1003.7 mb 0.00 in0.0 mm 0.00 in0.0 mm 0.00 in0.0 mm
07:14 AM 42.4°F5.8°C 40.0°F4.4°C 91% 2.0 mph W3.2 kmh W 3.0 mph4.8 kmh 29.64 in1003.7 mb 0.00 in0.0 mm 0.00 in0.0 mm 0.00 in0.0 mm
07:19 AM 42.3°F5.7°C 40.1°F4.5°C 92% 1.0 mph W1.6 kmh W 2.0 mph3.2 kmh 29.64 in1003.7 mb 0.00 in0.0 mm 0.00 in0.0 mm 0.00 in0.0 mm
07:23 AM 42.3°F5.7°C 39.8°F4.3°C 91% 1.0 mph W1.6 kmh W 2.0 mph3.2 kmh 29.64 in1003.7 mb 0.00 in0.0 mm 0.00 in0.0 mm 0.00 in0.0 mm
07:29 AM 42.1°F5.6°C 39.9°F4.4°C 92% Calm Calm 2.0 mph3.2 kmh 29.65 in1004.1 mb 0.00 in0.0 mm 0.00 in0.0 mm 0.00 in0.0 mm
07:34 AM 41.4°F5.2°C 39.2°F4.0°C 92% Calm Calm 1.0 mph1.6 kmh 29.65 in1004.1 mb 0.00 in0.0 mm 0.00 in0.0 mm 0.00 in0.0 mm
07:39 AM 41.5°F5.3°C 39.7°F4.3°C 93% Calm Calm -- 29.65 in1004.1 mb 0.00 in0.0 mm 0.00 in0.0 mm 0.00 in0.0 mm
07:44 AM 41.2°F5.1°C 39.0°F3.9°C 92% Calm Calm -- 29.65 in1004.1 mb 0.00 in0.0 mm 0.00 in0.0 mm 0.00 in0.0 mm
07:49 AM 40.8°F4.9°C 39.0°F3.9°C 93% Calm Calm -- 29.66 in1004.4 mb 0.00 in0.0 mm 0.00 in0.0 mm 0.00 in0.0 mm
07:54 AM 40.8°F4.9°C 39.2°F4.0°C 94% Calm Calm -- 29.66 in1004.4 mb 0.00 in0.0 mm 0.00 in0.0 mm 0.00 in0.0 mm
07:59 AM 40.6°F4.8°C 39.1°F3.9°C 94% Calm Calm -- 29.66 in1004.4 mb 0.00 in0.0 mm 0.00 in0.0 mm 0.00 in0.0 mm
08:04 AM 40.6°F4.8°C 38.8°F3.8°C 93% Calm Calm -- 29.66 in1004.4 mb 0.00 in0.0 mm 0.00 in0.0 mm 0.00 in0.0 mm
08:09 AM 40.6°F4.8°C 39.1°F3.9°C 94% Calm Calm -- 29.66 in1004.4 mb 0.00 in0.0 mm 0.00 in0.0 mm 0.00 in0.0 mm
08:14 AM 40.5°F4.7°C 38.9°F3.8°C 94% Calm Calm -- 29.67 in1004.7 mb 0.00 in0.0 mm 0.00 in0.0 mm 0.00 in0.0 mm
08:19 AM 40.5°F4.7°C 38.9°F3.8°C 94% Calm Calm -- 29.67 in1004.7 mb 0.00 in0.0 mm 0.00 in0.0 mm 0.00 in0.0 mm
08:24 AM 40.5°F4.7°C 38.9°F3.8°C 94% Calm Calm -- 29.67 in1004.7 mb 0.00 in0.0 mm 0.00 in0.0 mm 0.00 in0.0 mm
08:29 AM 40.5°F4.7°C 38.9°F3.8°C 94% Calm Calm -- 29.67 in1004.7 mb 0.00 in0.0 mm 0.00 in0.0 mm 0.00 in0.0 mm
08:34 AM 40.5°F4.7°C 38.9°F3.8°C 94% Calm Calm -- 29.67 in1004.7 mb 0.00 in0.0 mm 0.00 in0.0 mm 0.00 in0.0 mm
08:39 AM 40.5°F4.7°C 39.1°F3.9°C 95% Calm Calm -- 29.67 in1004.7 mb 0.00 in0.0 mm 0.00 in0.0 mm 0.00 in0.0 mm
08:44 AM 40.3°F4.6°C 38.7°F3.7°C 94% Calm Calm -- 29.68 in1005.1 mb 0.00 in0.0 mm 0.00 in0.0 mm 0.00 in0.0 mm
08:49 AM 40.1°F4.5°C 38.8°F3.8°C 95% Calm Calm -- 29.68 in1005.1 mb 0.00 in0.0 mm 0.00 in0.0 mm 0.00 in0.0 mm
08:54 AM 39.9°F4.4°C 38.6°F3.7°C 95% Calm Calm -- 29.68 in1005.1 mb 0.00 in0.0 mm 0.00 in0.0 mm 0.00 in0.0 mm
08:59 AM 39.6°F4.2°C 38.2°F3.4°C 95% Calm Calm -- 29.68 in1005.1 mb 0.00 in0.0 mm 0.00 in0.0 mm 0.00 in0.0 mm
09:04 AM 39.6°F4.2°C 38.2°F3.4°C 95% Calm Calm -- 29.69 in1005.4 mb 0.00 in0.0 mm 0.00 in0.0 mm 0.00 in0.0 mm
09:09 AM 39.4°F4.1°C 38.1°F3.4°C 95% Calm Calm -- 29.69 in1005.4 mb 0.00 in0.0 mm 0.00 in0.0 mm 0.00 in0.0 mm
09:14 AM 39.4°F4.1°C 38.1°F3.4°C 95% Calm Calm -- 29.70 in1005.8 mb 0.00 in0.0 mm 0.00 in0.0 mm 0.00 in0.0 mm
09:19 AM 39.4°F4.1°C 38.3°F3.5°C 96% Calm Calm -- 29.70 in1005.8 mb 0.00 in0.0 mm 0.00 in0.0 mm 0.00 in0.0 mm
09:24 AM 39.2°F4.0°C 37.9°F3.3°C 95% Calm Calm -- 29.70 in1005.8 mb 0.00 in0.0 mm 0.00 in0.0 mm 0.00 in0.0 mm
09:29 AM 39.6°F4.2°C 38.5°F3.6°C 96% Calm Calm -- 29.71 in1006.1 mb 0.00 in0.0 mm 0.00 in0.0 mm 0.00 in0.0 mm
09:34 AM 39.6°F4.2°C 38.5°F3.6°C 96% Calm Calm 1.0 mph1.6 kmh 29.71 in1006.1 mb 0.00 in0.0 mm 0.00 in0.0 mm 0.00 in0.0 mm
09:39 AM 39.6°F4.2°C 38.5°F3.6°C 96% Calm Calm -- 29.71 in1006.1 mb 0.00 in0.0 mm 0.00 in0.0 mm 0.00 in0.0 mm
09:44 AM 39.7°F4.3°C 38.7°F3.7°C 96% Calm Calm -- 29.72 in1006.4 mb 0.00 in0.0 mm 0.00 in0.0 mm 0.00 in0.0 mm
09:49 AM 39.9°F4.4°C 38.9°F3.8°C 96% Calm Calm -- 29.72 in1006.4 mb 0.00 in0.0 mm 0.00 in0.0 mm 0.00 in0.0 mm
09:54 AM 40.3°F4.6°C 39.2°F4.0°C 96% Calm Calm -- 29.72 in1006.4 mb 0.00 in0.0 mm 0.00 in0.0 mm 0.00 in0.0 mm
09:59 AM 40.5°F4.7°C 39.4°F4.1°C 96% Calm Calm -- 29.72 in1006.4 mb 0.00 in0.0 mm 0.00 in0.0 mm 0.00 in0.0 mm
10:04 AM 40.5°F4.7°C 39.4°F4.1°C 96% Calm Calm -- 29.72 in1006.4 mb 0.00 in0.0 mm 0.00 in0.0 mm 0.00 in0.0 mm
10:09 AM 40.5°F4.7°C 39.4°F4.1°C 96% Calm Calm -- 29.72 in1006.4 mb 0.00 in0.0 mm 0.00 in0.0 mm 0.00 in0.0 mm
10:14 AM 40.8°F4.9°C 39.8°F4.3°C 96% Calm Calm -- 29.73 in1006.8 mb 0.00 in0.0 mm 0.00 in0.0 mm 0.00 in0.0 mm
10:19 AM 41.0°F5.0°C 39.9°F4.4°C 96% Calm Calm -- 29.73 in1006.8 mb 0.00 in0.0 mm 0.00 in0.0 mm 0.00 in0.0 mm
10:24 AM 41.2°F5.1°C 40.1°F4.5°C 96% Calm Calm -- 29.74 in1007.1 mb 0.00 in0.0 mm 0.00 in0.0 mm 0.00 in0.0 mm
10:29 AM 41.2°F5.1°C 40.1°F4.5°C 96% Calm Calm -- 29.73 in1006.8 mb 0.00 in0.0 mm 0.00 in0.0 mm 0.00 in0.0 mm
10:34 AM 41.2°F5.1°C 40.1°F4.5°C 96% Calm Calm -- 29.73 in1006.8 mb 0.00 in0.0 mm 0.00 in0.0 mm 0.00 in0.0 mm
10:39 AM 41.4°F5.2°C 40.3°F4.6°C 96% Calm Calm -- 29.74 in1007.1 mb 0.00 in0.0 mm 0.00 in0.0 mm 0.00 in0.0 mm
10:44 AM 41.9°F5.5°C 40.8°F4.9°C 96% Calm Calm -- 29.74 in1007.1 mb 0.00 in0.0 mm 0.00 in0.0 mm 0.00 in0.0 mm
10:49 AM 41.7°F5.4°C 40.4°F4.7°C 95% Calm Calm -- 29.74 in1007.1 mb 0.00 in0.0 mm 0.00 in0.0 mm 0.00 in0.0 mm
10:54 AM 41.7°F5.4°C 40.4°F4.7°C 95% Calm Calm -- 29.74 in1007.1 mb 0.00 in0.0 mm 0.00 in0.0 mm 0.00 in0.0 mm
10:59 AM 41.7°F5.4°C 40.4°F4.7°C 95% Calm Calm -- 29.75 in1007.5 mb 0.00 in0.0 mm 0.00 in0.0 mm 0.00 in0.0 mm
11:04 AM 42.1°F5.6°C 40.8°F4.9°C 95% Calm Calm -- 29.75 in1007.5 mb 0.00 in0.0 mm 0.00 in0.0 mm 0.00 in0.0 mm
11:09 AM 42.1°F5.6°C 40.8°F4.9°C 95% Calm Calm -- 29.75 in1007.5 mb 0.00 in0.0 mm 0.00 in0.0 mm 0.00 in0.0 mm
11:14 AM 42.3°F5.7°C 40.9°F4.9°C 95% Calm Calm -- 29.75 in1007.5 mb 0.00 in0.0 mm 0.00 in0.0 mm 0.00 in0.0 mm
11:19 AM 42.4°F5.8°C 41.1°F5.1°C 95% Calm Calm -- 29.75 in1007.5 mb 0.00 in0.0 mm 0.00 in0.0 mm 0.00 in0.0 mm
11:24 AM 42.8°F6.0°C 41.5°F5.3°C 95% Calm Calm -- 29.75 in1007.5 mb 0.00 in0.0 mm 0.00 in0.0 mm 0.00 in0.0 mm
11:29 AM 43.0°F6.1°C 41.6°F5.3°C 95% Calm Calm -- 29.75 in1007.5 mb 0.00 in0.0 mm 0.00 in0.0 mm 0.00 in0.0 mm
11:34 AM 43.2°F6.2°C 41.8°F5.4°C 95% Calm Calm -- 29.76 in1007.8 mb 0.00 in0.0 mm 0.00 in0.0 mm 0.00 in0.0 mm
11:39 AM 43.3°F6.3°C 42.0°F5.6°C 95% Calm Calm -- 29.76 in1007.8 mb 0.00 in0.0 mm 0.00 in0.0 mm 0.00 in0.0 mm
11:44 AM 43.5°F6.4°C 41.9°F5.5°C 94% Calm Calm -- 29.76 in1007.8 mb 0.00 in0.0 mm 0.00 in0.0 mm 0.00 in0.0 mm
11:49 AM 43.9°F6.6°C 42.3°F5.7°C 94% Calm Calm -- 29.76 in1007.8 mb 0.00 in0.0 mm 0.00 in0.0 mm 0.00 in0.0 mm
11:54 AM 44.1°F6.7°C 42.2°F5.7°C 93% Calm Calm -- 29.77 in1008.1 mb 0.00 in0.0 mm 0.00 in0.0 mm 0.00 in0.0 mm
11:59 AM 44.1°F6.7°C 42.2°F5.7°C 93% Calm Calm -- 29.77 in1008.1 mb 0.00 in0.0 mm 0.00 in0.0 mm 0.00 in0.0 mm
12:04 PM 44.2°F6.8°C 42.1°F5.6°C 92% Calm Calm -- 29.77 in1008.1 mb 0.00 in0.0 mm 0.00 in0.0 mm 0.00 in0.0 mm
12:09 PM 44.2°F6.8°C 42.1°F5.6°C 92% Calm Calm -- 29.77 in1008.1 mb 0.00 in0.0 mm 0.00 in0.0 mm 0.00 in0.0 mm
12:14 PM 44.2°F6.8°C 42.1°F5.6°C 92% Calm Calm -- 29.77 in1008.1 mb 0.00 in0.0 mm 0.00 in0.0 mm 0.00 in0.0 mm
12:19 PM 44.4°F6.9°C 42.0°F5.6°C 91% Calm Calm -- 29.78 in1008.5 mb 0.00 in0.0 mm 0.00 in0.0 mm 0.00 in0.0 mm
12:24 PM 44.6°F7.0°C 41.9°F5.5°C 90% Calm Calm -- 29.77 in1008.1 mb 0.00 in0.0 mm 0.00 in0.0 mm 0.00 in0.0 mm
12:29 PM 44.8°F7.1°C 42.0°F5.6°C 90% Calm Calm -- 29.78 in1008.5 mb 0.00 in0.0 mm 0.00 in0.0 mm 0.00 in0.0 mm
12:34 PM 44.8°F7.1°C 41.7°F5.4°C 89% 1.0 mph NNE1.6 kmh NNE 2.0 mph3.2 kmh 29.78 in1008.5 mb 0.00 in0.0 mm 0.00 in0.0 mm 0.00 in0.0 mm
12:39 PM 44.8°F7.1°C 41.7°F5.4°C 89% 2.0 mph N3.2 kmh N 4.0 mph6.4 kmh 29.78 in1008.5 mb 0.00 in0.0 mm 0.00 in0.0 mm 0.00 in0.0 mm
12:44 PM 45.0°F7.2°C 41.9°F5.5°C 89% Calm Calm 1.0 mph1.6 kmh 29.78 in1008.5 mb 0.00 in0.0 mm 0.00 in0.0 mm 0.00 in0.0 mm
12:49 PM 45.0°F7.2°C 41.9°F5.5°C 89% 2.0 mph N3.2 kmh N 2.0 mph3.2 kmh 29.78 in1008.5 mb 0.00 in0.0 mm 0.00 in0.0 mm 0.00 in0.0 mm
12:54 PM 45.0°F7.2°C 41.9°F5.5°C 89% 3.0 mph N4.8 kmh N 4.0 mph6.4 kmh 29.78 in1008.5 mb 0.00 in0.0 mm 0.00 in0.0 mm 0.00 in0.0 mm
12:59 PM 45.0°F7.2°C 41.9°F5.5°C 89% Calm Calm 2.0 mph3.2 kmh 29.78 in1008.5 mb 0.00 in0.0 mm 0.00 in0.0 mm 0.00 in0.0 mm
01:04 PM 45.0°F7.2°C 41.9°F5.5°C 89% 2.0 mph NNW3.2 kmh NNW 2.0 mph3.2 kmh 29.78 in1008.5 mb 0.00 in0.0 mm 0.00 in0.0 mm 0.00 in0.0 mm
01:09 PM 45.0°F7.2°C 41.9°F5.5°C 89% 2.0 mph NNW3.2 kmh NNW 3.0 mph4.8 kmh 29.78 in1008.5 mb 0.00 in0.0 mm 0.00 in0.0 mm 0.00 in0.0 mm
01:14 PM 45.0°F7.2°C 41.9°F5.5°C 89% Calm Calm 2.0 mph3.2 kmh 29.78 in1008.5 mb 0.00 in0.0 mm 0.00 in0.0 mm 0.00 in0.0 mm
01:19 PM 45.1°F7.3°C 42.1°F5.6°C 89% 1.0 mph N1.6 kmh N 4.0 mph6.4 kmh 29.78 in1008.5 mb 0.00 in0.0 mm 0.00 in0.0 mm 0.00 in0.0 mm
01:24 PM 45.0°F7.2°C 41.6°F5.3°C 88% 1.0 mph NNE1.6 kmh NNE 3.0 mph4.8 kmh 29.78 in1008.5 mb 0.00 in0.0 mm 0.00 in0.0 mm 0.00 in0.0 mm
01:29 PM 45.0°F7.2°C 41.6°F5.3°C 88% 1.0 mph NNE1.6 kmh NNE 3.0 mph4.8 kmh 29.79 in1008.8 mb 0.00 in0.0 mm 0.00 in0.0 mm 0.00 in0.0 mm
01:34 PM 45.1°F7.3°C 41.8°F5.4°C 88% 1.0 mph NNE1.6 kmh NNE 1.0 mph1.6 kmh 29.79 in1008.8 mb 0.00 in0.0 mm 0.00 in0.0 mm 0.00 in0.0 mm
01:39 PM 45.1°F7.3°C 41.8°F5.4°C 88% 3.0 mph NNW4.8 kmh NNW 5.0 mph8.0 kmh 29.79 in1008.8 mb 0.00 in0.0 mm 0.00 in0.0 mm 0.00 in0.0 mm
01:44 PM 45.0°F7.2°C 41.9°F5.5°C 89% 2.0 mph NNW3.2 kmh NNW 3.0 mph4.8 kmh 29.80 in1009.1 mb 0.00 in0.0 mm 0.00 in0.0 mm 0.00 in0.0 mm
01:49 PM 45.0°F7.2°C 41.9°F5.5°C 89% 2.0 mph N3.2 kmh N 3.0 mph4.8 kmh 29.80 in1009.1 mb 0.00 in0.0 mm 0.00 in0.0 mm 0.00 in0.0 mm
01:54 PM 45.0°F7.2°C 41.9°F5.5°C 89% 2.0 mph N3.2 kmh N 3.0 mph4.8 kmh 29.80 in1009.1 mb 0.00 in0.0 mm 0.00 in0.0 mm 0.00 in0.0 mm
01:59 PM 44.8°F7.1°C 41.7°F5.4°C 89% 3.0 mph N4.8 kmh N 5.0 mph8.0 kmh 29.80 in1009.1 mb 0.00 in0.0 mm 0.00 in0.0 mm 0.00 in0.0 mm
02:04 PM 44.8°F7.1°C 41.7°F5.4°C 89% 3.0 mph NNE4.8 kmh NNE 4.0 mph6.4 kmh 29.80 in1009.1 mb 0.00 in0.0 mm 0.00 in0.0 mm 0.00 in0.0 mm
02:09 PM 44.8°F7.1°C 41.7°F5.4°C 89% 2.0 mph N3.2 kmh N 3.0 mph4.8 kmh 29.80 in1009.1 mb 0.00 in0.0 mm 0.00 in0.0 mm 0.00 in0.0 mm
02:14 PM 45.0°F7.2°C 41.9°F5.5°C 89% 3.0 mph NNE4.8 kmh NNE 5.0 mph8.0 kmh 29.80 in1009.1 mb 0.00 in0.0 mm 0.00 in0.0 mm 0.00 in0.0 mm
02:19 PM 44.8°F7.1°C 41.7°F5.4°C 89% 4.0 mph N6.4 kmh N 7.0 mph11.3 kmh 29.80 in1009.1 mb 0.00 in0.0 mm 0.00 in0.0 mm 0.00 in0.0 mm
02:24 PM 44.8°F7.1°C 41.7°F5.4°C 89% 3.0 mph NE4.8 kmh NE 5.0 mph8.0 kmh 29.80 in1009.1 mb 0.00 in0.0 mm 0.00 in0.0 mm 0.00 in0.0 mm
02:29 PM 45.0°F7.2°C 41.9°F5.5°C 89% 4.0 mph NNE6.4 kmh NNE 6.0 mph9.7 kmh 29.81 in1009.5 mb 0.00 in0.0 mm 0.00 in0.0 mm 0.00 in0.0 mm
02:34 PM 45.0°F7.2°C 41.9°F5.5°C 89% 6.0 mph N9.7 kmh N 10.0 mph16.1 kmh 29.81 in1009.5 mb 0.00 in0.0 mm 0.00 in0.0 mm 0.00 in0.0 mm
02:39 PM 44.8°F7.1°C 41.7°F5.4°C 89% 7.0 mph NNE11.3 kmh NNE 10.0 mph16.1 kmh 29.81 in1009.5 mb 0.00 in0.0 mm 0.00 in0.0 mm 0.00 in0.0 mm
02:44 PM 44.6°F7.0°C 41.6°F5.3°C 89% 4.0 mph NNE6.4 kmh NNE 5.0 mph8.0 kmh 29.82 in1009.8 mb 0.00 in0.0 mm 0.00 in0.0 mm 0.00 in0.0 mm
02:49 PM 44.6°F7.0°C 41.9°F5.5°C 90% 3.0 mph NNE4.8 kmh NNE 7.0 mph11.3 kmh 29.82 in1009.8 mb 0.00 in0.0 mm 0.00 in0.0 mm 0.00 in0.0 mm
02:54 PM 44.6°F7.0°C 41.6°F5.3°C 89% 1.0 mph NE1.6 kmh NE 3.0 mph4.8 kmh 29.83 in1010.2 mb 0.00 in0.0 mm 0.00 in0.0 mm 0.00 in0.0 mm
02:59 PM 44.6°F7.0°C 41.6°F5.3°C 89% 3.0 mph NNE4.8 kmh NNE 5.0 mph8.0 kmh 29.83 in1010.2 mb 0.00 in0.0 mm 0.00 in0.0 mm 0.00 in0.0 mm
03:04 PM 44.8°F7.1°C 41.7°F5.4°C 89% 6.0 mph NNE9.7 kmh NNE 9.0 mph14.5 kmh 29.83 in1010.2 mb 0.00 in0.0 mm 0.00 in0.0 mm 0.00 in0.0 mm
03:09 PM 44.4°F6.9°C 41.4°F5.2°C 89% 3.0 mph N4.8 kmh N 6.0 mph9.7 kmh 29.83 in1010.2 mb 0.00 in0.0 mm 0.00 in0.0 mm 0.00 in0.0 mm
03:14 PM 44.4°F6.9°C 41.4°F5.2°C 89% 4.0 mph NNE6.4 kmh NNE 8.0 mph12.9 kmh 29.83 in1010.2 mb 0.00 in0.0 mm 0.00 in0.0 mm 0.00 in0.0 mm
03:19 PM 44.4°F6.9°C 41.1°F5.1°C 88% 5.0 mph NNE8.0 kmh NNE 10.0 mph16.1 kmh 29.83 in1010.2 mb 0.00 in0.0 mm 0.00 in0.0 mm 0.00 in0.0 mm
03:24 PM 44.4°F6.9°C 41.1°F5.1°C 88% 4.0 mph NNE6.4 kmh NNE 6.0 mph9.7 kmh 29.83 in1010.2 mb 0.00 in0.0 mm 0.00 in0.0 mm 0.00 in0.0 mm
03:29 PM 44.4°F6.9°C 41.1°F5.1°C 88% 4.0 mph NNE6.4 kmh NNE 8.0 mph12.9 kmh 29.83 in1010.2 mb 0.00 in0.0 mm 0.00 in0.0 mm 0.00 in0.0 mm
03:34 PM 44.4°F6.9°C 41.1°F5.1°C 88% 3.0 mph NE4.8 kmh NE 8.0 mph12.9 kmh 29.83 in1010.2 mb 0.00 in0.0 mm 0.00 in0.0 mm 0.00 in0.0 mm
03:39 PM 44.2°F6.8°C 40.9°F4.9°C 88% 4.0 mph NNE6.4 kmh NNE 7.0 mph11.3 kmh 29.84 in1010.5 mb 0.00 in0.0 mm 0.00 in0.0 mm 0.00 in0.0 mm
03:44 PM 44.2°F6.8°C 40.9°F4.9°C 88% 5.0 mph NNE8.0 kmh NNE 10.0 mph16.1 kmh 29.84 in1010.5 mb 0.00 in0.0 mm 0.00 in0.0 mm 0.00 in0.0 mm
03:49 PM 44.2°F6.8°C 40.9°F4.9°C 88% 5.0 mph NNE8.0 kmh NNE 9.0 mph14.5 kmh 29.84 in1010.5 mb 0.00 in0.0 mm 0.00 in0.0 mm 0.00 in0.0 mm
03:54 PM 44.1°F6.7°C 40.7°F4.8°C 88% 3.0 mph N4.8 kmh N 7.0 mph11.3 kmh 29.85 in1010.8 mb 0.00 in0.0 mm 0.00 in0.0 mm 0.00 in0.0 mm
03:59 PM 44.1°F6.7°C 40.7°F4.8°C 88% 6.0 mph NNE9.7 kmh NNE 13.0 mph20.9 kmh 29.85 in1010.8 mb 0.00 in0.0 mm 0.00 in0.0 mm 0.00 in0.0 mm
04:04 PM 44.1°F6.7°C 40.7°F4.8°C 88% 5.0 mph NNE8.0 kmh NNE 6.0 mph9.7 kmh 29.85 in1010.8 mb 0.00 in0.0 mm 0.00 in0.0 mm 0.00 in0.0 mm
04:09 PM 44.1°F6.7°C 40.7°F4.8°C 88% 5.0 mph NE8.0 kmh NE 8.0 mph12.9 kmh 29.85 in1010.8 mb 0.00 in0.0 mm 0.00 in0.0 mm 0.00 in0.0 mm
04:14 PM 43.9°F6.6°C 40.6°F4.8°C 88% 5.0 mph NE8.0 kmh NE 9.0 mph14.5 kmh 29.86 in1011.2 mb 0.00 in0.0 mm 0.00 in0.0 mm 0.00 in0.0 mm
04:19 PM 43.9°F6.6°C 40.6°F4.8°C 88% 5.0 mph NNE8.0 kmh NNE 10.0 mph16.1 kmh 29.86 in1011.2 mb 0.00 in0.0 mm 0.00 in0.0 mm 0.00 in0.0 mm
04:24 PM 43.7°F6.5°C 40.4°F4.7°C 88% 5.0 mph NNE8.0 kmh NNE 13.0 mph20.9 kmh 29.86 in1011.2 mb 0.00 in0.0 mm 0.00 in0.0 mm 0.00 in0.0 mm
04:29 PM 43.9°F6.6°C 40.6°F4.8°C 88% 5.0 mph NNE8.0 kmh NNE 10.0 mph16.1 kmh 29.86 in1011.2 mb 0.00 in0.0 mm 0.00 in0.0 mm 0.00 in0.0 mm
04:34 PM 43.9°F6.6°C 40.6°F4.8°C 88% 6.0 mph NNE9.7 kmh NNE 12.0 mph19.3 kmh 29.86 in1011.2 mb 0.00 in0.0 mm 0.00 in0.0 mm 0.00 in0.0 mm
04:39 PM 43.7°F6.5°C 40.1°F4.5°C 87% 5.0 mph NNE8.0 kmh NNE 10.0 mph16.1 kmh 29.86 in1011.2 mb 0.00 in0.0 mm 0.00 in0.0 mm 0.00 in0.0 mm
04:44 PM 43.5°F6.4°C 39.9°F4.4°C 87% 3.0 mph NNE4.8 kmh NNE 4.0 mph6.4 kmh 29.86 in1011.2 mb 0.00 in0.0 mm 0.00 in0.0 mm 0.00 in0.0 mm
04:49 PM 43.3°F6.3°C 39.7°F4.3°C 87% 4.0 mph NNE6.4 kmh NNE 8.0 mph12.9 kmh 29.87 in1011.5 mb 0.00 in0.0 mm 0.00 in0.0 mm 0.00 in0.0 mm
04:54 PM 43.3°F6.3°C 40.0°F4.4°C 88% 4.0 mph NNE6.4 kmh NNE 8.0 mph12.9 kmh 29.88 in1011.9 mb 0.00 in0.0 mm 0.00 in0.0 mm 0.00 in0.0 mm
04:59 PM 43.2°F6.2°C 39.6°F4.2°C 87% 5.0 mph NNE8.0 kmh NNE 9.0 mph14.5 kmh 29.88 in1011.9 mb 0.00 in0.0 mm 0.00 in0.0 mm 0.00 in0.0 mm
05:04 PM 43.2°F6.2°C 39.6°F4.2°C 87% 6.0 mph NNE9.7 kmh NNE 10.0 mph16.1 kmh 29.88 in1011.9 mb 0.00 in0.0 mm 0.00 in0.0 mm 0.00 in0.0 mm
05:09 PM 43.2°F6.2°C 39.6°F4.2°C 87% 5.0 mph NNE8.0 kmh NNE 8.0 mph12.9 kmh 29.88 in1011.9 mb 0.00 in0.0 mm 0.00 in0.0 mm 0.00 in0.0 mm
05:14 PM 43.0°F6.1°C 39.7°F4.3°C 88% 6.0 mph NNE9.7 kmh NNE 11.0 mph17.7 kmh 29.89 in1012.2 mb 0.00 in0.0 mm 0.00 in0.0 mm 0.00 in0.0 mm
05:19 PM 43.0°F6.1°C 39.4°F4.1°C 87% 4.0 mph NE6.4 kmh NE 7.0 mph11.3 kmh 29.89 in1012.2 mb 0.00 in0.0 mm 0.00 in0.0 mm 0.00 in0.0 mm
05:24 PM 42.8°F6.0°C 39.2°F4.0°C 87% 8.0 mph NNE12.9 kmh NNE 12.0 mph19.3 kmh 29.89 in1012.2 mb 0.00 in0.0 mm 0.00 in0.0 mm 0.00 in0.0 mm
05:29 PM 42.8°F6.0°C 39.2°F4.0°C 87% 6.0 mph NNE9.7 kmh NNE 13.0 mph20.9 kmh 29.89 in1012.2 mb 0.00 in0.0 mm 0.00 in0.0 mm 0.00 in0.0 mm
05:34 PM 42.6°F5.9°C 39.0°F3.9°C 87% 4.0 mph NNE6.4 kmh NNE 7.0 mph11.3 kmh 29.90 in1012.5 mb 0.00 in0.0 mm 0.00 in0.0 mm 0.00 in0.0 mm
05:39 PM 42.4°F5.8°C 38.9°F3.8°C 87% 3.0 mph NE4.8 kmh NE 6.0 mph9.7 kmh 29.90 in1012.5 mb 0.00 in0.0 mm 0.00 in0.0 mm 0.00 in0.0 mm
05:44 PM 42.4°F5.8°C 39.1°F3.9°C 88% 5.0 mph NNE8.0 kmh NNE 10.0 mph16.1 kmh 29.90 in1012.5 mb 0.00 in0.0 mm 0.00 in0.0 mm 0.00 in0.0 mm
05:49 PM 42.4°F5.8°C 38.9°F3.8°C 87% 5.0 mph NE8.0 kmh NE 10.0 mph16.1 kmh 29.91 in1012.9 mb 0.00 in0.0 mm 0.00 in0.0 mm 0.00 in0.0 mm
05:54 PM 42.3°F5.7°C 38.7°F3.7°C 87% 6.0 mph NNE9.7 kmh NNE 11.0 mph17.7 kmh 29.91 in1012.9 mb 0.00 in0.0 mm 0.00 in0.0 mm 0.00 in0.0 mm
05:59 PM 42.3°F5.7°C 38.7°F3.7°C 87% 4.0 mph NNE6.4 kmh NNE 10.0 mph16.1 kmh 29.91 in1012.9 mb 0.00 in0.0 mm 0.00 in0.0 mm 0.00 in0.0 mm
06:04 PM 42.3°F5.7°C 38.7°F3.7°C 87% 6.0 mph NNE9.7 kmh NNE 11.0 mph17.7 kmh 29.91 in1012.9 mb 0.00 in0.0 mm 0.00 in0.0 mm 0.00 in0.0 mm
06:09 PM 42.1°F5.6°C 38.5°F3.6°C 87% 4.0 mph NNE6.4 kmh NNE 8.0 mph12.9 kmh 29.91 in1012.9 mb 0.00 in0.0 mm 0.00 in0.0 mm 0.00 in0.0 mm
06:14 PM 42.1°F5.6°C 38.5°F3.6°C 87% 8.0 mph NNE12.9 kmh NNE 14.0 mph22.5 kmh 29.92 in1013.2 mb 0.00 in0.0 mm 0.00 in0.0 mm 0.00 in0.0 mm
06:19 PM 41.9°F5.5°C 38.0°F3.3°C 86% 6.0 mph NE9.7 kmh NE 11.0 mph17.7 kmh 29.92 in1013.2 mb 0.00 in0.0 mm 0.00 in0.0 mm 0.00 in0.0 mm
06:24 PM 41.9°F5.5°C 37.7°F3.2°C 85% 5.0 mph NNE8.0 kmh NNE 9.0 mph14.5 kmh 29.92 in1013.2 mb 0.00 in0.0 mm 0.00 in0.0 mm 0.00 in0.0 mm
06:29 PM 41.7°F5.4°C 37.6°F3.1°C 85% 3.0 mph NNE4.8 kmh NNE 4.0 mph6.4 kmh 29.93 in1013.5 mb 0.00 in0.0 mm 0.00 in0.0 mm 0.00 in0.0 mm
06:34 PM 41.7°F5.4°C 37.6°F3.1°C 85% 5.0 mph NE8.0 kmh NE 9.0 mph14.5 kmh 29.93 in1013.5 mb 0.00 in0.0 mm 0.00 in0.0 mm 0.00 in0.0 mm
06:39 PM 41.7°F5.4°C 37.3°F2.9°C 84% 4.0 mph NNE6.4 kmh NNE 7.0 mph11.3 kmh 29.93 in1013.5 mb 0.00 in0.0 mm 0.00 in0.0 mm 0.00 in0.0 mm
06:44 PM 41.7°F5.4°C 37.3°F2.9°C 84% 6.0 mph NNE9.7 kmh NNE 11.0 mph17.7 kmh 29.94 in1013.9 mb 0.00 in0.0 mm 0.00 in0.0 mm 0.00 in0.0 mm
06:49 PM 41.7°F5.4°C 36.9°F2.7°C 83% 4.0 mph NE6.4 kmh NE 7.0 mph11.3 kmh 29.94 in1013.9 mb 0.00 in0.0 mm 0.00 in0.0 mm 0.00 in0.0 mm
06:54 PM 41.5°F5.3°C 37.1°F2.8°C 84% 6.0 mph NNE9.7 kmh NNE 13.0 mph20.9 kmh 29.95 in1014.2 mb 0.00 in0.0 mm 0.00 in0.0 mm 0.00 in0.0 mm
06:59 PM 41.5°F5.3°C 37.1°F2.8°C 84% 5.0 mph NNE8.0 kmh NNE 9.0 mph14.5 kmh 29.95 in1014.2 mb 0.00 in0.0 mm 0.00 in0.0 mm 0.00 in0.0 mm
07:04 PM 41.5°F5.3°C 37.1°F2.8°C 84% 5.0 mph NNE8.0 kmh NNE 13.0 mph20.9 kmh 29.96 in1014.6 mb 0.00 in0.0 mm 0.00 in0.0 mm 0.00 in0.0 mm
07:09 PM 41.4°F5.2°C 36.9°F2.7°C 84% 6.0 mph NNE9.7 kmh NNE 12.0 mph19.3 kmh 29.96 in1014.6 mb 0.00 in0.0 mm 0.00 in0.0 mm 0.00 in0.0 mm
07:14 PM 41.4°F5.2°C 37.2°F2.9°C 85% 7.0 mph N11.3 kmh N 11.0 mph17.7 kmh 29.96 in1014.6 mb 0.00 in0.0 mm 0.00 in0.0 mm 0.00 in0.0 mm
07:19 PM 41.2°F5.1°C 37.0°F2.8°C 85% 7.0 mph NNE11.3 kmh NNE 10.0 mph16.1 kmh 29.96 in1014.6 mb 0.00 in0.0 mm 0.00 in0.0 mm 0.00 in0.0 mm
07:24 PM 41.2°F5.1°C 37.0°F2.8°C 85% 4.0 mph NNE6.4 kmh NNE 10.0 mph16.1 kmh 29.96 in1014.6 mb 0.00 in0.0 mm 0.00 in0.0 mm 0.00 in0.0 mm
07:29 PM 41.2°F5.1°C 37.0°F2.8°C 85% 5.0 mph NNE8.0 kmh NNE 11.0 mph17.7 kmh 29.96 in1014.6 mb 0.00 in0.0 mm 0.00 in0.0 mm 0.00 in0.0 mm
07:34 PM 41.0°F5.0°C 36.8°F2.7°C 85% 5.0 mph NE8.0 kmh NE 10.0 mph16.1 kmh 29.96 in1014.6 mb 0.00 in0.0 mm 0.00 in0.0 mm 0.00 in0.0 mm
07:39 PM 40.8°F4.9°C 36.7°F2.6°C 85% 5.0 mph NNE8.0 kmh NNE 11.0 mph17.7 kmh 29.97 in1014.9 mb 0.00 in0.0 mm 0.00 in0.0 mm 0.00 in0.0 mm
07:44 PM 41.0°F5.0°C 36.5°F2.5°C 84% 5.0 mph NE8.0 kmh NE 9.0 mph14.5 kmh 29.97 in1014.9 mb 0.00 in0.0 mm 0.00 in0.0 mm 0.00 in0.0 mm
07:49 PM 41.0°F5.0°C 36.5°F2.5°C 84% 5.0 mph NNE8.0 kmh NNE 13.0 mph20.9 kmh 29.97 in1014.9 mb 0.00 in0.0 mm 0.00 in0.0 mm 0.00 in0.0 mm
07:54 PM 40.8°F4.9°C 36.4°F2.4°C 84% 4.0 mph NE6.4 kmh NE 11.0 mph17.7 kmh 29.97 in1014.9 mb 0.00 in0.0 mm 0.00 in0.0 mm 0.00 in0.0 mm
07:59 PM 41.0°F5.0°C 36.5°F2.5°C 84% 6.0 mph NNE9.7 kmh NNE 11.0 mph17.7 kmh 29.98 in1015.2 mb 0.00 in0.0 mm 0.00 in0.0 mm 0.00 in0.0 mm
08:04 PM 40.8°F4.9°C 36.4°F2.4°C 84% 4.0 mph NNE6.4 kmh NNE 7.0 mph11.3 kmh 29.98 in1015.2 mb 0.00 in0.0 mm 0.00 in0.0 mm 0.00 in0.0 mm
08:09 PM 40.8°F4.9°C 36.4°F2.4°C 84% 5.0 mph NE8.0 kmh NE 9.0 mph14.5 kmh 29.98 in1015.2 mb 0.00 in0.0 mm 0.00 in0.0 mm 0.00 in0.0 mm
08:14 PM 40.6°F4.8°C 36.2°F2.3°C 84% 7.0 mph NNE11.3 kmh NNE 14.0 mph22.5 kmh 29.99 in1015.6 mb 0.00 in0.0 mm 0.00 in0.0 mm 0.00 in0.0 mm
08:19 PM 40.6°F4.8°C 36.5°F2.5°C 85% 4.0 mph NNE6.4 kmh NNE 9.0 mph14.5 kmh 29.99 in1015.6 mb 0.00 in0.0 mm 0.00 in0.0 mm 0.00 in0.0 mm
08:24 PM 40.6°F4.8°C 36.5°F2.5°C 85% 5.0 mph NNE8.0 kmh NNE 11.0 mph17.7 kmh 29.99 in1015.6 mb 0.00 in0.0 mm 0.00 in0.0 mm 0.00 in0.0 mm
08:29 PM 40.5°F4.7°C 36.3°F2.4°C 85% 5.0 mph NNE8.0 kmh NNE 10.0 mph16.1 kmh 29.99 in1015.6 mb 0.00 in0.0 mm 0.00 in0.0 mm 0.00 in0.0 mm
08:34 PM 40.5°F4.7°C 36.3°F2.4°C 85% 6.0 mph NNE9.7 kmh NNE 11.0 mph17.7 kmh 29.99 in1015.6 mb 0.00 in0.0 mm 0.00 in0.0 mm 0.00 in0.0 mm
08:39 PM 40.5°F4.7°C 36.3°F2.4°C 85% 4.0 mph NE6.4 kmh NE 8.0 mph12.9 kmh 30.00 in1015.9 mb 0.00 in0.0 mm 0.00 in0.0 mm 0.00 in0.0 mm
08:44 PM 40.5°F4.7°C 36.6°F2.6°C 86% 5.0 mph NNE8.0 kmh NNE 9.0 mph14.5 kmh 30.00 in1015.9 mb 0.00 in0.0 mm 0.00 in0.0 mm 0.00 in0.0 mm
08:49 PM 40.3°F4.6°C 36.4°F2.4°C 86% 5.0 mph NE8.0 kmh NE 13.0 mph20.9 kmh 30.01 in1016.3 mb 0.00 in0.0 mm 0.00 in0.0 mm 0.00 in0.0 mm
08:54 PM 40.3°F4.6°C 36.4°F2.4°C 86% 6.0 mph NNE9.7 kmh NNE 11.0 mph17.7 kmh 30.01 in1016.3 mb 0.00 in0.0 mm 0.00 in0.0 mm 0.00 in0.0 mm
08:59 PM 40.3°F4.6°C 36.4°F2.4°C 86% 5.0 mph NNE8.0 kmh NNE 9.0 mph14.5 kmh 30.01 in1016.3 mb 0.00 in0.0 mm 0.00 in0.0 mm 0.00 in0.0 mm
09:04 PM 40.3°F4.6°C 36.4°F2.4°C 86% 4.0 mph NE6.4 kmh NE 9.0 mph14.5 kmh 30.02 in1016.6 mb 0.00 in0.0 mm 0.00 in0.0 mm 0.00 in0.0 mm
09:09 PM 40.1°F4.5°C 36.6°F2.6°C 87% 5.0 mph NNE8.0 kmh NNE 8.0 mph12.9 kmh 30.02 in1016.6 mb 0.00 in0.0 mm 0.00 in0.0 mm 0.00 in0.0 mm
09:14 PM 40.1°F4.5°C 36.6°F2.6°C 87% 4.0 mph NE6.4 kmh NE 6.0 mph9.7 kmh 30.02 in1016.6 mb 0.00 in0.0 mm 0.00 in0.0 mm 0.00 in0.0 mm
09:19 PM 39.9°F4.4°C 36.4°F2.4°C 87% 6.0 mph NNE9.7 kmh NNE 12.0 mph19.3 kmh 30.03 in1016.9 mb 0.00 in0.0 mm 0.00 in0.0 mm 0.00 in0.0 mm
09:24 PM 39.9°F4.4°C 36.4°F2.4°C 87% 5.0 mph NNE8.0 kmh NNE 9.0 mph14.5 kmh 30.03 in1016.9 mb 0.00 in0.0 mm 0.00 in0.0 mm 0.00 in0.0 mm
09:29 PM 39.7°F4.3°C 36.2°F2.3°C 87% 6.0 mph NNE9.7 kmh NNE 9.0 mph14.5 kmh 30.03 in1016.9 mb 0.00 in0.0 mm 0.00 in0.0 mm 0.00 in0.0 mm
09:34 PM 39.9°F4.4°C 36.4°F2.4°C 87% 5.0 mph NNE8.0 kmh NNE 8.0 mph12.9 kmh 30.04 in1017.3 mb 0.00 in0.0 mm 0.00 in0.0 mm 0.00 in0.0 mm
09:39 PM 39.7°F4.3°C 36.2°F2.3°C 87% 5.0 mph NNE8.0 kmh NNE 9.0 mph14.5 kmh 30.04 in1017.3 mb 0.00 in0.0 mm 0.00 in0.0 mm 0.00 in0.0 mm
09:44 PM 39.7°F4.3°C 36.2°F2.3°C 87% 4.0 mph NE6.4 kmh NE 10.0 mph16.1 kmh 30.04 in1017.3 mb 0.00 in0.0 mm 0.00 in0.0 mm 0.00 in0.0 mm
09:49 PM 39.7°F4.3°C 36.2°F2.3°C 87% 4.0 mph NE6.4 kmh NE 6.0 mph9.7 kmh 30.04 in1017.3 mb 0.00 in0.0 mm 0.00 in0.0 mm 0.00 in0.0 mm
09:54 PM 39.7°F4.3°C 36.2°F2.3°C 87% 3.0 mph NE4.8 kmh NE 6.0 mph9.7 kmh 30.04 in1017.3 mb 0.00 in0.0 mm 0.00 in0.0 mm 0.00 in0.0 mm
09:59 PM 39.7°F4.3°C 36.2°F2.3°C 87% 3.0 mph NE4.8 kmh NE 6.0 mph9.7 kmh 30.04 in1017.3 mb 0.00 in0.0 mm 0.00 in0.0 mm 0.00 in0.0 mm
10:04 PM 39.7°F4.3°C 36.2°F2.3°C 87% 5.0 mph NE8.0 kmh NE 11.0 mph17.7 kmh 30.04 in1017.3 mb 0.00 in0.0 mm 0.00 in0.0 mm 0.00 in0.0 mm
10:09 PM 39.7°F4.3°C 36.2°F2.3°C 87% 5.0 mph NNE8.0 kmh NNE 12.0 mph19.3 kmh 30.04 in1017.3 mb 0.00 in0.0 mm 0.00 in0.0 mm 0.00 in0.0 mm
10:14 PM 39.7°F4.3°C 36.2°F2.3°C 87% 3.0 mph NNE4.8 kmh NNE 6.0 mph9.7 kmh 30.05 in1017.6 mb 0.00 in0.0 mm 0.00 in0.0 mm 0.00 in0.0 mm
10:19 PM 39.6°F4.2°C 36.0°F2.2°C 87% 6.0 mph NE9.7 kmh NE 11.0 mph17.7 kmh 30.05 in1017.6 mb 0.00 in0.0 mm 0.00 in0.0 mm 0.00 in0.0 mm
10:24 PM 39.6°F4.2°C 36.0°F2.2°C 87% 3.0 mph NE4.8 kmh NE 5.0 mph8.0 kmh 30.05 in1017.6 mb 0.00 in0.0 mm 0.00 in0.0 mm 0.00 in0.0 mm
10:29 PM 39.6°F4.2°C 36.0°F2.2°C 87% 3.0 mph NNE4.8 kmh NNE 8.0 mph12.9 kmh 30.05 in1017.6 mb 0.00 in0.0 mm 0.00 in0.0 mm 0.00 in0.0 mm
10:34 PM 39.4°F4.1°C 35.8°F2.1°C 87% 4.0 mph NE6.4 kmh NE 9.0 mph14.5 kmh 30.06 in1017.9 mb 0.00 in0.0 mm 0.00 in0.0 mm 0.00 in0.0 mm
10:39 PM 39.4°F4.1°C 35.8°F2.1°C 87% 3.0 mph NNE4.8 kmh NNE 5.0 mph8.0 kmh 30.06 in1017.9 mb 0.00 in0.0 mm 0.00 in0.0 mm 0.00 in0.0 mm
10:44 PM 39.4°F4.1°C 35.8°F2.1°C 87% 2.0 mph NE3.2 kmh NE 4.0 mph6.4 kmh 30.06 in1017.9 mb 0.00 in0.0 mm 0.00 in0.0 mm 0.00 in0.0 mm
10:49 PM 39.2°F4.0°C 36.0°F2.2°C 88% 4.0 mph NE6.4 kmh NE 5.0 mph8.0 kmh 30.07 in1018.3 mb 0.00 in0.0 mm 0.00 in0.0 mm 0.00 in0.0 mm
10:54 PM 39.0°F3.9°C 35.8°F2.1°C 88% 4.0 mph NNE6.4 kmh NNE 8.0 mph12.9 kmh 30.07 in1018.3 mb 0.00 in0.0 mm 0.00 in0.0 mm 0.00 in0.0 mm
10:59 PM 39.0°F3.9°C 35.8°F2.1°C 88% 5.0 mph NNE8.0 kmh NNE 8.0 mph12.9 kmh 30.07 in1018.3 mb 0.00 in0.0 mm 0.00 in0.0 mm 0.00 in0.0 mm
11:04 PM 39.0°F3.9°C 35.8°F2.1°C 88% 4.0 mph NNE6.4 kmh NNE 11.0 mph17.7 kmh 30.07 in1018.3 mb 0.00 in0.0 mm 0.00 in0.0 mm 0.00 in0.0 mm
11:09 PM 39.0°F3.9°C 35.8°F2.1°C 88% 5.0 mph NNE8.0 kmh NNE 8.0 mph12.9 kmh 30.08 in1018.6 mb 0.00 in0.0 mm 0.00 in0.0 mm 0.00 in0.0 mm
11:14 PM 39.0°F3.9°C 35.8°F2.1°C 88% 5.0 mph NNE8.0 kmh NNE 10.0 mph16.1 kmh 30.08 in1018.6 mb 0.00 in0.0 mm 0.00 in0.0 mm 0.00 in0.0 mm
11:19 PM 39.0°F3.9°C 35.8°F2.1°C 88% 5.0 mph NNE8.0 kmh NNE 11.0 mph17.7 kmh 30.08 in1018.6 mb 0.00 in0.0 mm 0.00 in0.0 mm 0.00 in0.0 mm
11:24 PM 38.8°F3.8°C 35.6°F2.0°C 88% 4.0 mph NNE6.4 kmh NNE 6.0 mph9.7 kmh 30.08 in1018.6 mb 0.00 in0.0 mm 0.00 in0.0 mm 0.00 in0.0 mm
11:29 PM 38.8°F3.8°C 35.9°F2.2°C 89% 3.0 mph NE4.8 kmh NE 8.0 mph12.9 kmh 30.08 in1018.6 mb 0.00 in0.0 mm 0.00 in0.0 mm 0.00 in0.0 mm
11:34 PM 38.8°F3.8°C 35.9°F2.2°C 89% 5.0 mph NNE8.0 kmh NNE 10.0 mph16.1 kmh 30.09 in1019.0 mb 0.00 in0.0 mm 0.00 in0.0 mm 0.00 in0.0 mm
11:39 PM 38.7°F3.7°C 35.7°F2.1°C 89% 2.0 mph NNE3.2 kmh NNE 4.0 mph6.4 kmh 30.09 in1019.0 mb 0.00 in0.0 mm 0.00 in0.0 mm 0.00 in0.0 mm
11:44 PM 38.7°F3.7°C 35.7°F2.1°C 89% 4.0 mph NE6.4 kmh NE 7.0 mph11.3 kmh 30.09 in1019.0 mb 0.00 in0.0 mm 0.00 in0.0 mm 0.00 in0.0 mm
11:49 PM 38.7°F3.7°C 35.7°F2.1°C 89% 4.0 mph NNE6.4 kmh NNE 6.0 mph9.7 kmh 30.09 in1019.0 mb 0.00 in0.0 mm 0.00 in0.0 mm 0.00 in0.0 mm
11:54 PM 38.5°F3.6°C 35.5°F1.9°C 89% 6.0 mph NNE9.7 kmh NNE 10.0 mph16.1 kmh 30.09 in1019.0 mb 0.00 in0.0 mm 0.00 in0.0 mm 0.00 in0.0 mm
11:59 PM 38.5°F3.6°C 35.5°F1.9°C 89% 5.0 mph NNE8.0 kmh NNE 9.0 mph14.5 kmh 30.10 in1019.3 mb 0.00 in0.0 mm 0.00 in0.0 mm 0.00 in0.0 mm